createdAt,value
2018-05-11T00:01:12.938Z,15.61
2018-05-11T00:03:40.332Z,15.56
2018-05-11T00:06:07.735Z,15.50
2018-05-11T00:08:35.124Z,15.59
2018-05-11T00:11:02.542Z,15.85
2018-05-11T00:13:29.935Z,15.91
2018-05-11T00:15:57.337Z,15.89
2018-05-11T00:18:24.715Z,15.56
2018-05-11T00:20:52.115Z,15.61
2018-05-11T00:23:19.544Z,15.44
2018-05-11T00:25:46.929Z,15.84
2018-05-11T00:28:14.320Z,15.82
2018-05-11T00:30:41.717Z,15.83
2018-05-11T00:33:09.103Z,15.78
2018-05-11T00:35:36.500Z,15.57
2018-05-11T00:38:03.889Z,15.49
2018-05-11T00:40:31.275Z,15.74
2018-05-11T00:42:58.673Z,15.45
2018-05-11T00:45:26.058Z,15.20
2018-05-11T00:47:53.438Z,15.23
2018-05-11T00:50:21.022Z,15.13
2018-05-11T00:52:48.648Z,15.30
2018-05-11T00:55:27.812Z,15.03
2018-05-11T00:57:55.202Z,15.04
2018-05-11T01:00:22.603Z,15.04
2018-05-11T01:02:50.039Z,15.20
2018-05-11T01:05:17.484Z,15.38
2018-05-11T01:07:44.882Z,15.05
2018-05-11T01:10:12.260Z,15.05
2018-05-11T01:12:39.666Z,14.94
2018-05-11T01:15:07.043Z,14.93
2018-05-11T01:17:34.476Z,14.93
2018-05-11T01:20:01.905Z,15.03
2018-05-11T01:22:29.271Z,14.80
2018-05-11T01:24:56.845Z,14.80
2018-05-11T01:27:24.472Z,14.91
2018-05-11T01:29:51.862Z,14.99
2018-05-11T01:32:19.334Z,15.10
2018-05-11T01:34:46.961Z,15.01
2018-05-11T01:37:14.409Z,14.86
2018-05-11T01:39:41.811Z,14.86
2018-05-11T01:42:09.211Z,14.88
2018-05-11T01:44:36.605Z,14.90
2018-05-11T01:47:04.004Z,14.80
2018-05-11T01:49:31.404Z,14.82
2018-05-11T01:51:58.812Z,14.84
2018-05-11T01:54:26.207Z,14.68
2018-05-11T01:56:53.613Z,14.70
2018-05-11T01:59:21.414Z,14.70
2018-05-11T02:01:48.881Z,14.66
2018-05-11T02:04:16.397Z,14.67
2018-05-11T02:06:43.796Z,14.62
2018-05-11T02:09:11.196Z,14.94
2018-05-11T02:14:29.668Z,15.38
2018-05-11T02:16:57.067Z,15.42
2018-05-11T02:19:24.456Z,15.45
2018-05-11T02:21:51.867Z,15.27
2018-05-11T02:24:19.270Z,15.43
2018-05-11T02:26:46.657Z,15.38
2018-05-11T02:29:14.038Z,15.35
2018-05-11T02:31:41.457Z,15.18
2018-05-11T02:34:08.844Z,15.37
2018-05-11T02:36:36.302Z,15.42
2018-05-11T02:39:03.641Z,15.17
2018-05-11T02:41:31.048Z,15.27
2018-05-11T02:43:58.450Z,15.10
2018-05-11T02:46:25.850Z,15.38
2018-05-11T02:48:53.369Z,15.40
2018-05-11T02:51:21.610Z,15.33
2018-05-11T02:53:49.100Z,15.44
2018-05-11T02:56:16.504Z,15.38
2018-05-11T02:58:43.882Z,15.30
2018-05-11T03:01:11.283Z,15.37
2018-05-11T03:03:38.670Z,15.41
2018-05-11T03:06:06.068Z,15.40
2018-05-11T03:08:33.478Z,15.24
2018-05-11T03:11:00.876Z,15.27
2018-05-11T03:13:28.279Z,15.20
2018-05-11T03:15:55.671Z,15.22
2018-05-11T03:18:23.125Z,15.15
2018-05-11T03:20:50.440Z,15.21
2018-05-11T03:23:17.854Z,15.15
2018-05-11T03:25:45.239Z,15.02
2018-05-11T03:28:12.663Z,15.21
2018-05-11T03:30:40.038Z,15.08
2018-05-11T03:33:07.428Z,15.10
2018-05-11T03:35:34.811Z,15.06
2018-05-11T03:38:02.210Z,15.02
2018-05-11T03:40:29.591Z,15.06
2018-05-11T03:42:56.983Z,14.92
2018-05-11T03:45:24.384Z,14.98
2018-05-11T03:47:51.845Z,14.97
2018-05-11T03:50:19.328Z,15.05
2018-05-11T03:52:46.706Z,15.00
2018-05-11T03:55:14.097Z,15.01
2018-05-11T03:57:41.501Z,15.06
2018-05-11T04:00:08.891Z,14.73
2018-05-11T04:02:47.826Z,14.91
2018-05-11T04:05:27.082Z,14.95
2018-05-11T04:08:07.003Z,14.81
2018-05-11T04:10:34.401Z,14.89
2018-05-11T04:13:01.785Z,14.93
2018-05-11T04:15:29.166Z,14.92
2018-05-11T04:17:56.588Z,14.91
2018-05-11T04:20:24.047Z,14.88
2018-05-11T04:22:52.000Z,14.87
2018-05-11T04:25:19.393Z,14.92
2018-05-11T04:27:46.910Z,15.05
2018-05-11T04:30:14.294Z,15.18
2018-05-11T04:32:41.695Z,15.10
2018-05-11T04:35:09.082Z,15.01
2018-05-11T04:37:36.492Z,15.06
2018-05-11T04:40:03.874Z,15.10
2018-05-11T04:42:31.287Z,15.11
2018-05-11T04:44:58.885Z,15.17
2018-05-11T04:47:26.295Z,15.14
2018-05-11T04:49:53.682Z,15.19
2018-05-11T04:52:22.161Z,15.18
2018-05-11T04:54:49.576Z,15.15
2018-05-11T04:57:16.977Z,15.22
2018-05-11T04:59:44.369Z,15.41
2018-05-11T05:02:11.766Z,15.35
2018-05-11T05:04:39.168Z,15.31
2018-05-11T05:07:06.568Z,15.06
2018-05-11T05:09:33.957Z,15.33
2018-05-11T05:12:01.352Z,15.32
2018-05-11T05:14:28.742Z,15.08
2018-05-11T05:16:56.118Z,14.93
2018-05-11T05:19:23.595Z,14.94
2018-05-11T05:21:50.901Z,14.96
2018-05-11T05:24:18.302Z,15.14
2018-05-11T05:26:45.711Z,15.11
2018-05-11T05:29:13.130Z,15.16
2018-05-11T05:31:40.501Z,15.24
2018-05-11T05:34:07.910Z,15.30
2018-05-11T05:36:35.311Z,15.45
2018-05-11T05:39:02.701Z,15.48
2018-05-11T05:41:30.088Z,15.45
2018-05-11T05:43:57.483Z,15.64
2018-05-11T05:46:24.867Z,15.59
2018-05-11T05:48:52.413Z,15.49
2018-05-11T05:51:19.794Z,15.62
2018-05-11T05:53:47.285Z,15.72
2018-05-11T05:56:14.671Z,15.64
2018-05-11T05:58:42.062Z,15.74
2018-05-11T06:01:09.456Z,15.75
2018-05-11T06:03:36.846Z,15.70
2018-05-11T06:06:04.238Z,15.71
2018-05-11T06:08:31.635Z,15.86
2018-05-11T06:10:59.091Z,15.87
2018-05-11T06:13:26.411Z,15.94
2018-05-11T06:15:53.786Z,15.76
2018-05-11T06:18:21.190Z,15.84
2018-05-11T06:20:48.582Z,15.81
2018-05-11T06:23:15.983Z,15.91
2018-05-11T06:25:43.612Z,16.07
2018-05-11T06:28:11.066Z,16.04
2018-05-11T06:30:38.542Z,16.02
2018-05-11T06:33:05.943Z,16.02
2018-05-11T06:35:33.332Z,16.22
2018-05-11T06:38:00.727Z,16.24
2018-05-11T06:40:28.197Z,16.32
2018-05-11T06:42:55.498Z,16.36
2018-05-11T06:45:23.043Z,16.29
2018-05-11T06:47:50.687Z,16.31
2018-05-11T06:50:18.070Z,16.59
2018-05-11T06:52:45.521Z,16.65
2018-05-11T06:55:12.952Z,16.69
2018-05-11T06:57:40.349Z,16.73
2018-05-11T07:00:07.737Z,16.60
2018-05-11T07:02:35.165Z,16.71
2018-05-11T07:05:02.619Z,16.82
2018-05-11T07:07:30.012Z,16.87
2018-05-11T07:09:57.412Z,17.09
2018-05-11T07:12:24.792Z,17.02
2018-05-11T07:14:52.968Z,17.27
2018-05-11T07:17:20.390Z,17.33
2018-05-11T07:19:47.799Z,17.31
2018-05-11T07:22:15.186Z,17.29
2018-05-11T07:24:42.625Z,17.37
2018-05-11T07:27:10.027Z,17.41
2018-05-11T07:29:37.425Z,17.58
2018-05-11T07:32:04.816Z,17.58
2018-05-11T07:34:32.256Z,17.74
2018-05-11T07:36:59.690Z,17.98
2018-05-11T07:39:27.046Z,18.12
2018-05-11T07:41:54.435Z,18.08
2018-05-11T07:44:21.842Z,18.14
2018-05-11T07:46:49.227Z,18.12
2018-05-11T07:49:16.626Z,18.07
2018-05-11T07:51:44.015Z,18.21
2018-05-11T07:54:11.414Z,18.10
2018-05-11T07:56:38.799Z,18.07
2018-05-11T07:59:06.188Z,18.21
2018-05-11T08:01:33.567Z,18.17
2018-05-11T08:04:00.991Z,18.03
2018-05-11T08:06:28.353Z,18.02
2018-05-11T08:08:55.742Z,18.08
2018-05-11T08:11:23.166Z,18.08
2018-05-11T08:13:50.594Z,17.99
2018-05-11T08:16:17.978Z,18.11
2018-05-11T08:18:45.368Z,18.20
2018-05-11T08:21:12.757Z,18.35
2018-05-11T08:23:40.155Z,18.25
2018-05-11T08:26:07.631Z,18.31
2018-05-11T08:28:35.137Z,18.13
2018-05-11T08:31:02.535Z,18.33
2018-05-11T08:33:29.911Z,18.55
2018-05-11T08:35:57.396Z,18.62
2018-05-11T08:38:24.679Z,18.81
2018-05-11T08:40:52.072Z,18.72
2018-05-11T08:43:19.474Z,18.55
2018-05-11T08:45:46.864Z,18.63
2018-05-11T08:48:14.250Z,18.66
2018-05-11T08:50:41.645Z,18.58
2018-05-11T08:53:09.108Z,18.82
2018-05-11T08:55:36.488Z,18.89
2018-05-11T08:58:03.880Z,19.10
2018-05-11T09:00:31.277Z,19.17
2018-05-11T09:02:58.671Z,18.99
2018-05-11T09:05:26.053Z,19.16
2018-05-11T09:07:54.110Z,19.16
2018-05-11T09:10:21.654Z,19.35
2018-05-11T09:12:49.044Z,19.54
2018-05-11T09:15:16.450Z,19.70
2018-05-11T09:17:43.825Z,19.75
2018-05-11T09:20:11.224Z,19.88
2018-05-11T09:22:38.618Z,20.05
2018-05-11T09:25:05.998Z,20.17
2018-05-11T09:27:33.387Z,19.77
2018-05-11T09:30:00.785Z,19.76
2018-05-11T09:32:28.188Z,19.98
2018-05-11T09:34:55.587Z,19.84
2018-05-11T09:37:23.624Z,20.22
2018-05-11T09:39:51.049Z,20.45
2018-05-11T09:42:18.394Z,20.60
2018-05-11T09:44:45.813Z,20.68
2018-05-11T09:47:13.197Z,20.73
2018-05-11T09:49:40.586Z,20.85
2018-05-11T09:52:07.988Z,20.82
2018-05-11T09:54:35.390Z,20.72
2018-05-11T09:57:02.784Z,20.86
2018-05-11T09:59:30.185Z,20.76
2018-05-11T10:01:57.558Z,20.80
2018-05-11T10:04:24.958Z,20.87
2018-05-11T10:06:52.342Z,21.00
2018-05-11T10:09:19.761Z,21.01
2018-05-11T10:11:47.151Z,21.07
2018-05-11T10:14:14.558Z,21.35
2018-05-11T10:19:10.715Z,21.30
2018-05-11T10:21:38.104Z,21.58
2018-05-11T10:24:05.511Z,21.66
2018-05-11T10:26:32.915Z,21.82
2018-05-11T10:29:00.398Z,21.49
2018-05-11T10:31:27.707Z,21.95
2018-05-11T10:33:55.105Z,22.17
2018-05-11T10:36:22.503Z,22.27
2018-05-11T10:38:49.904Z,22.51
2018-05-11T10:41:17.287Z,22.84
2018-05-11T10:43:44.690Z,22.90
2018-05-11T10:46:12.075Z,22.93
2018-05-11T10:48:39.489Z,22.59
2018-05-11T10:51:06.867Z,22.59
2018-05-11T10:53:34.246Z,22.67
2018-05-11T10:56:01.635Z,22.62
2018-05-11T10:58:29.029Z,22.86
2018-05-11T11:00:56.430Z,23.10
2018-05-11T11:03:24.230Z,22.97
2018-05-11T11:05:51.793Z,22.99
2018-05-11T11:08:19.208Z,23.36
2018-05-11T11:10:46.604Z,23.71
2018-05-11T11:13:13.986Z,23.78
2018-05-11T11:15:41.379Z,23.76
2018-05-11T11:18:08.759Z,23.78
2018-05-11T11:20:36.143Z,23.75
2018-05-11T11:23:03.532Z,23.69
2018-05-11T11:25:30.935Z,23.73
2018-05-11T11:27:58.316Z,23.39
2018-05-11T11:30:25.751Z,23.36
2018-05-11T11:32:53.183Z,23.73
2018-05-11T11:35:20.617Z,24.00
2018-05-11T11:37:47.995Z,24.94
2018-05-11T11:40:15.403Z,25.42
2018-05-11T11:42:42.795Z,25.40
2018-05-11T11:45:10.178Z,25.63
2018-05-11T11:47:37.677Z,25.77
2018-05-11T11:50:04.982Z,26.10
2018-05-11T11:52:32.360Z,26.01
2018-05-11T11:54:59.751Z,25.41
2018-05-11T11:57:27.140Z,25.54
2018-05-11T11:59:54.534Z,25.31
2018-05-11T12:02:21.973Z,24.96
2018-05-11T12:04:49.371Z,25.17
2018-05-11T12:07:16.858Z,25.74
2018-05-11T12:09:44.234Z,25.54
2018-05-11T12:12:11.627Z,25.08
2018-05-11T12:14:39.009Z,25.09
2018-05-11T12:17:06.390Z,24.56
2018-05-11T12:19:33.791Z,24.51
2018-05-11T12:22:01.201Z,24.47
2018-05-11T12:24:28.581Z,24.21
2018-05-11T12:26:55.975Z,24.85
2018-05-11T12:29:23.359Z,25.35
2018-05-11T12:31:50.748Z,25.38
2018-05-11T12:34:18.123Z,25.50
2018-05-11T12:36:45.518Z,25.83
2018-05-11T12:39:12.904Z,27.27
2018-05-11T12:41:40.285Z,28.71
2018-05-11T12:44:07.669Z,29.45
2018-05-11T12:46:35.095Z,30.12
2018-05-11T12:49:02.426Z,29.67
2018-05-11T12:51:29.838Z,27.83
2018-05-11T12:53:57.223Z,26.99
2018-05-11T12:56:24.746Z,26.70
2018-05-11T12:58:52.524Z,25.98
2018-05-11T13:01:19.905Z,26.04
2018-05-11T13:03:47.275Z,26.00
2018-05-11T13:06:14.684Z,25.88
2018-05-11T13:08:42.088Z,25.62
2018-05-11T13:11:09.482Z,25.84
2018-05-11T13:13:36.863Z,25.79
2018-05-11T13:16:04.248Z,26.13
2018-05-11T13:18:31.889Z,26.19
2018-05-11T13:20:59.266Z,25.64
2018-05-11T13:23:26.655Z,25.46
2018-05-11T13:25:54.827Z,25.56
2018-05-11T13:28:22.207Z,25.81
2018-05-11T13:30:49.620Z,25.60
2018-05-11T13:33:16.987Z,26.33
2018-05-11T13:35:44.370Z,26.75
2018-05-11T13:38:11.779Z,27.59
2018-05-11T13:40:39.165Z,27.43
2018-05-11T13:43:06.549Z,26.96
2018-05-11T13:45:33.936Z,26.74
2018-05-11T13:48:01.318Z,26.23
2018-05-11T13:50:28.714Z,25.85
2018-05-11T13:52:56.063Z,25.79
2018-05-11T13:55:23.696Z,25.57
2018-05-11T13:57:51.088Z,25.81
2018-05-11T14:00:18.477Z,25.90
2018-05-11T14:02:45.860Z,25.84
2018-05-11T14:05:13.236Z,25.91
2018-05-11T14:07:40.635Z,25.58
2018-05-11T14:10:08.016Z,25.60
2018-05-11T14:12:35.403Z,25.77
2018-05-11T14:15:02.795Z,25.68
2018-05-11T14:17:30.179Z,25.63
2018-05-11T14:19:57.564Z,25.74
2018-05-11T14:22:25.128Z,26.12
2018-05-11T14:24:52.538Z,26.39
2018-05-11T14:27:19.893Z,26.40
2018-05-11T14:29:47.271Z,26.39
2018-05-11T14:32:14.665Z,26.38
2018-05-11T14:34:42.040Z,26.01
2018-05-11T14:37:09.435Z,25.71
2018-05-11T14:39:36.821Z,25.83
2018-05-11T14:42:04.203Z,26.06
2018-05-11T14:44:31.583Z,25.68
2018-05-11T14:46:58.970Z,26.19
2018-05-11T14:49:26.353Z,25.72
2018-05-11T14:51:53.855Z,25.69
2018-05-11T14:54:21.297Z,25.73
2018-05-11T14:56:48.954Z,25.67
2018-05-11T14:59:16.347Z,25.99
2018-05-11T15:01:43.726Z,26.60
2018-05-11T15:04:11.132Z,26.64
2018-05-11T15:06:38.499Z,26.51
2018-05-11T15:09:05.894Z,25.88
2018-05-11T15:11:33.277Z,25.70
2018-05-11T15:14:00.659Z,25.81
2018-05-11T15:16:28.036Z,25.51
2018-05-11T15:18:55.425Z,25.55
2018-05-11T15:21:22.798Z,25.45
2018-05-11T15:23:50.178Z,25.46
2018-05-11T15:26:17.566Z,25.59
2018-05-11T15:28:44.958Z,26.40
2018-05-11T15:31:12.375Z,27.37
2018-05-11T15:33:39.725Z,28.15
2018-05-11T15:36:07.107Z,28.96
2018-05-11T15:38:34.492Z,29.24
2018-05-11T15:41:01.878Z,29.77
2018-05-11T15:43:29.259Z,29.87
2018-05-11T15:45:57.040Z,30.14
2018-05-11T15:48:24.406Z,30.33
2018-05-11T15:50:51.790Z,29.37
2018-05-11T15:53:19.184Z,28.23
2018-05-11T15:55:46.572Z,27.65
2018-05-11T15:58:13.975Z,27.52
2018-05-11T16:00:41.348Z,26.84
2018-05-11T16:03:08.743Z,26.71
2018-05-11T16:05:36.115Z,26.68
2018-05-11T16:08:03.516Z,26.43
2018-05-11T16:10:30.939Z,26.08
2018-05-11T16:12:58.397Z,25.89
2018-05-11T16:15:25.709Z,25.57
2018-05-11T16:17:53.898Z,25.53
2018-05-11T16:20:21.274Z,25.40
2018-05-11T16:22:48.656Z,25.27
2018-05-11T16:25:16.049Z,24.97
2018-05-11T16:27:43.440Z,25.17
2018-05-11T16:30:10.823Z,25.04
2018-05-11T16:32:38.218Z,25.23
2018-05-11T16:35:05.597Z,25.04
2018-05-11T16:40:24.262Z,24.83
2018-05-11T16:42:51.614Z,24.82
2018-05-11T16:45:18.993Z,24.78
2018-05-11T16:47:46.397Z,24.67
2018-05-11T16:50:13.792Z,24.62
2018-05-11T16:52:41.163Z,24.54
2018-05-11T16:55:08.559Z,24.52
2018-05-11T16:57:35.943Z,24.53
2018-05-11T17:00:03.333Z,24.40
2018-05-11T17:02:30.719Z,24.26
2018-05-11T17:04:58.108Z,24.35
2018-05-11T17:07:25.891Z,24.22
2018-05-11T17:09:53.284Z,24.32
2018-05-11T17:12:20.687Z,24.35
2018-05-11T17:14:48.079Z,24.07
2018-05-11T17:17:15.461Z,24.19
2018-05-11T17:19:42.851Z,24.21
2018-05-11T17:22:10.240Z,24.20
2018-05-11T17:24:37.611Z,24.09
2018-05-11T17:27:04.998Z,23.92
2018-05-11T17:29:32.379Z,24.05
2018-05-11T17:31:59.764Z,24.07
2018-05-11T17:34:27.156Z,23.87
2018-05-11T17:36:54.576Z,23.92
2018-05-11T17:39:21.959Z,23.79
2018-05-11T17:41:49.450Z,23.61
2018-05-11T17:44:16.739Z,23.49
2018-05-11T17:46:44.615Z,23.53
2018-05-11T17:49:12.007Z,23.25
2018-05-11T17:51:39.400Z,23.43
2018-05-11T17:54:06.788Z,23.52
2018-05-11T17:56:34.173Z,23.34
2018-05-11T17:59:01.564Z,23.37
2018-05-11T18:01:28.937Z,23.30
2018-05-11T18:03:56.325Z,23.11
2018-05-11T18:06:23.740Z,23.14
2018-05-11T18:08:51.114Z,23.06
2018-05-11T18:11:18.483Z,23.00
2018-05-11T18:13:45.871Z,23.01
2018-05-11T18:16:13.276Z,22.95
2018-05-11T18:18:40.690Z,23.04
2018-05-11T18:21:08.067Z,22.83
2018-05-11T18:23:36.887Z,22.84
2018-05-11T18:26:04.263Z,22.73
2018-05-11T18:28:31.680Z,22.65
2018-05-11T18:30:59.086Z,22.56
2018-05-11T18:33:26.449Z,22.53
2018-05-11T18:35:53.924Z,22.47
2018-05-11T18:38:21.296Z,22.40
2018-05-11T18:40:48.679Z,22.39
2018-05-11T18:43:16.072Z,22.24
2018-05-11T18:45:43.460Z,22.27
2018-05-11T18:48:10.840Z,22.19
2018-05-11T18:50:38.256Z,22.16
2018-05-11T18:53:05.925Z,22.12
2018-05-11T18:55:33.007Z,21.98
2018-05-11T18:58:00.388Z,22.03
2018-05-11T19:00:27.780Z,21.88
2018-05-11T19:02:55.165Z,21.69
2018-05-11T19:05:22.548Z,21.77
2018-05-11T19:07:49.938Z,21.68
2018-05-11T19:10:17.331Z,21.73
2018-05-11T19:12:44.707Z,21.60
2018-05-11T19:15:12.131Z,21.59
2018-05-11T19:17:39.506Z,21.45
2018-05-11T19:20:06.880Z,21.27
2018-05-11T19:22:34.263Z,21.34
2018-05-11T19:25:01.652Z,21.30
2018-05-11T19:27:29.027Z,21.20
2018-05-11T19:29:56.654Z,21.20
2018-05-11T19:32:24.168Z,21.10
2018-05-11T19:34:51.436Z,21.07
2018-05-11T19:37:18.835Z,20.97
2018-05-11T19:39:46.479Z,20.96
2018-05-11T19:42:13.869Z,20.83
2018-05-11T19:44:41.243Z,20.71
2018-05-11T19:47:08.628Z,20.75
2018-05-11T19:49:36.014Z,20.80
2018-05-11T19:52:03.395Z,20.75
2018-05-11T19:54:30.782Z,20.78
2018-05-11T19:56:58.159Z,20.78
2018-05-11T19:59:26.628Z,20.51
2018-05-11T20:01:54.001Z,20.53
2018-05-11T20:04:21.867Z,20.59
2018-05-11T20:06:49.254Z,20.69
2018-05-11T20:09:16.643Z,20.70
2018-05-11T20:11:44.035Z,20.34
2018-05-11T20:14:11.427Z,20.45
2018-05-11T20:16:38.815Z,20.55
2018-05-11T20:19:06.203Z,20.64
2018-05-11T20:21:33.594Z,20.54
2018-05-11T20:24:00.985Z,20.29
2018-05-11T20:26:28.376Z,20.18
2018-05-11T20:28:55.773Z,20.23
2018-05-11T20:31:24.154Z,20.17
2018-05-11T20:33:51.539Z,20.25
2018-05-11T20:36:18.958Z,20.32
2018-05-11T20:38:46.332Z,20.26
2018-05-11T20:41:13.726Z,20.30
2018-05-11T20:43:41.112Z,20.30
2018-05-11T20:46:08.502Z,20.18
2018-05-11T20:48:35.878Z,20.05
2018-05-11T20:51:03.266Z,20.02
2018-05-11T20:53:30.642Z,20.03
2018-05-11T20:55:58.023Z,19.83
2018-05-11T20:58:25.420Z,19.85
2018-05-11T21:00:52.816Z,19.78
2018-05-11T21:03:20.833Z,19.87
2018-05-11T21:05:48.223Z,19.82
2018-05-11T21:08:15.703Z,19.84
2018-05-11T21:10:43.092Z,19.79
2018-05-11T21:13:10.480Z,19.81
2018-05-11T21:15:37.869Z,19.71
2018-05-11T21:18:05.252Z,19.69
2018-05-11T21:20:32.640Z,19.70
2018-05-11T21:23:00.017Z,19.57
2018-05-11T21:25:31.393Z,19.73
2018-05-11T21:27:58.771Z,19.74
2018-05-11T21:30:27.190Z,19.55
2018-05-11T21:32:54.571Z,19.51
2018-05-11T21:35:21.972Z,19.39
2018-05-11T21:37:49.356Z,19.43
2018-05-11T21:40:16.751Z,19.38
2018-05-11T21:42:44.136Z,19.43
2018-05-11T21:45:11.524Z,19.45
2018-05-11T21:47:38.894Z,19.46
2018-05-11T21:50:06.283Z,19.34
2018-05-11T21:52:33.667Z,19.26
2018-05-11T21:55:01.338Z,19.19
2018-05-11T21:57:28.721Z,19.12
2018-05-11T21:59:56.116Z,19.25
2018-05-11T22:02:23.504Z,19.24
2018-05-11T22:04:51.152Z,19.23
2018-05-11T22:07:18.534Z,19.14
2018-05-11T22:09:45.926Z,19.05
2018-05-11T22:12:13.328Z,19.11
2018-05-11T22:14:40.705Z,19.08
2018-05-11T22:17:08.103Z,19.11
2018-05-11T22:19:35.532Z,18.94
2018-05-11T22:22:02.903Z,18.95
2018-05-11T22:24:30.284Z,18.95
2018-05-11T22:26:57.693Z,18.79
2018-05-11T22:29:25.067Z,18.88
2018-05-11T22:31:52.456Z,18.88
2018-05-11T22:34:19.853Z,18.83
2018-05-11T22:36:47.301Z,18.86
2018-05-11T22:39:14.709Z,18.58
2018-05-11T22:41:42.151Z,18.75
2018-05-11T22:44:09.569Z,18.64
2018-05-11T22:46:36.976Z,18.63
2018-05-11T22:49:04.549Z,18.63
2018-05-11T22:51:31.968Z,18.73
2018-05-11T22:53:59.960Z,18.69
2018-05-11T22:56:27.663Z,18.83
2018-05-11T22:58:55.097Z,18.81
2018-05-11T23:01:22.518Z,18.84
2018-05-11T23:03:49.910Z,18.79
2018-05-11T23:06:17.311Z,18.62
2018-05-11T23:08:44.703Z,18.64
2018-05-11T23:11:12.111Z,18.68
2018-05-11T23:13:39.504Z,18.57
2018-05-11T23:16:06.899Z,18.54
2018-05-11T23:18:34.338Z,18.61
2018-05-11T23:21:01.835Z,18.61
2018-05-11T23:23:29.260Z,18.65
2018-05-11T23:25:56.684Z,18.64
2018-05-11T23:28:24.075Z,18.53
2018-05-11T23:30:51.563Z,18.40
2018-05-11T23:33:18.980Z,18.37
2018-05-11T23:35:46.379Z,18.55
2018-05-11T23:38:13.771Z,18.52
2018-05-11T23:40:41.174Z,18.38
2018-05-11T23:43:08.582Z,18.29
2018-05-11T23:45:35.979Z,18.13
2018-05-11T23:48:03.368Z,18.29
2018-05-11T23:50:30.767Z,18.36
2018-05-11T23:52:58.164Z,18.32
2018-05-11T23:55:25.633Z,18.18
2018-05-11T23:57:53.043Z,18.15
